Terminal Aerodrome Forecast
Issued by NWS Mt. Holly, NJ

Home | Current Version | Previous Version | Text Only | Print | Product List | Glossary On
Versions: 1 2 3 4 5 6 7 8 9 10 11 12 13 14 15 16 17 18 19 20 21 22 23 24 25 26 27 28 29 30 31
000
FTUS41 KPHI 030520
TAFACY
TAF
KACY 030520Z 0306/0406 00000KT 4SM BR SCT070 OVC090
     FM030800 VRB03KT 1SM BR OVC006
     FM031300 06004KT 5SM BR BKN009 BKN250
     FM031400 13007KT P6SM FEW020 BKN250=

USA.gov is the U.S. government's official web portal to all federal, state and local government web resources and services.